To NAV CANADA Home Page Login to a new session Search on AWWS site Disclaimer Vers la page française équivalente Tips FAQ What's new on the site To the Forecasts and Observations / NOTAM section To "File a Flight Plan" website Publications and other links Update of the User's profile FIC Telephone Numbers My Weather Data Folder Route Weather Data Regional Weather Data Local Weather Data To the Forecasts and Observations / NOTAM section
Request Generated 01/22/2019 at 02:12:05 UTC . Weather information available at that time is displayed.


Go to a specific product

Save this request - Inactive

METAR/TAF

REGINA INTL/SK    

METAR CYQR 220200Z CCA 32020G26KT 15SM DRSN OVC010 M08/M10 A3001 RMK SC8 SLP210=
METAR CYQR 220200Z 32020G26KT 15SM OVC010 M08/M10 A3001 RMK SC8 SLP210=
SPECI CYQR 220129Z 31012KT 15SM OVC009 M09/M11 A2999 RMK SC8 SLP205=
METAR CYQR 220100Z 31013KT 15SM OVC010 M09/M12 A2998 RMK SC8 SLP199=
SPECI CYQR 220040Z 31010KT 15SM OVC010 M09/M12 A2997 RMK SC8 SLP195=
SPECI CYQR 220014Z 31010KT 15SM OVC009 M10/M12 A2996 RMK SC8 SLP193=
METAR CYQR 220000Z 30009KT 15SM OVC011 M11/M13 A2995 RMK SC8 SLP191=

TAF AMD CYQR 220025Z 2200/2224 30010KT P6SM SCT008 OVC015 TEMPO
2200/2205 2SM -SN BR OVC008
FM220500 30007KT P6SM SCT015 TEMPO 2205/2213 SCT005 BKN015 PROB30
2207/2213 1SM BR BKN005
FM221300 26005KT P6SM SCT005 BKN025 TEMPO 2213/2219 2SM -SN BR
BKN005 OVC015
BECMG 2215/2217 21008KT
FM221900 21010KT P6SM FEW020 SCT220
RMK NXT FCST BY 220600Z=


GRAPHICAL FA CLOUDS & WEATHER FORECASTS
To the Product Selector
Graphical FA gfacn32      

GRAPHICAL FA ICING, TURBULENCE & FREEZING LEVEL FORECASTS
To the Product Selector
Graphical FA gfacn32      

FDTEXT Low Level FD. Temperatures are not forecast for the 3,000-foot level.
To the Product Selector
STN YQR - REGINA. SASK for use 3000 6000 9000 12000 18000
FDCN01 CWAO FCST BASED ON 211200 DATA VALID 211800 17-21 2811-06 3111-14 3113-19 2726-29
FDCN02 CWAO FCST BASED ON 211200 DATA VALID 220000 21-06 3225-08 3224-13 3020-19 2726-30
FDCN03 CWAO FCST BASED ON 211200 DATA VALID 221200 06-17 3133-08 3229-14 3234-21 3237-30



Your time UTC time
Weather data provided by Environment Canada and NAV CANADA